Time;durP1;ratioP1;P1;durP2;ratioP2;P2;SDS_P1;SDS_P2;PMS_P1;PMS_P2;Temp;Humidity;BMP_temperature;BMP_pressure;BME280_temperature;BME280_humidity;BME280_pressure;Samples;Min_cycle;Max_cycle;Signal;HPM_P1;HPM_P2
2021/04/02 00:01:36;;;;;;;41.53;25.35;;;14.60;95.80;;;;;;5096444;28;20034;-69
2021/04/02 00:04:02;;;;;;;43.97;24.13;;;14.50;95.90;;;;;;5096912;28;20082;-69
2021/04/02 00:06:28;;;;;;;36.92;21.92;;;14.50;95.80;;;;;;5095774;28;20711;-70
2021/04/02 00:08:53;;;;;;;41.53;21.17;;;14.50;95.90;;;;;;5095695;28;20103;-69
2021/04/02 00:11:19;;;;;;;35.60;19.87;;;14.40;95.80;;;;;;5095972;28;20278;-68
2021/04/02 00:13:46;;;;;;;35.45;19.33;;;14.40;95.90;;;;;;5094647;28;20459;-68
2021/04/02 00:16:15;;;;;;;31.05;18.30;;;14.40;96.00;;;;;;5096366;28;20503;-66
2021/04/02 00:18:41;;;;;;;30.00;16.67;;;14.40;96.00;;;;;;5095649;28;20020;-66
2021/04/02 00:21:08;;;;;;;27.90;16.42;;;14.30;95.90;;;;;;5095273;28;20107;-65
2021/04/02 00:23:35;;;;;;;32.33;17.40;;;14.20;96.10;;;;;;5095227;28;20095;-66
2021/04/02 00:26:05;;;;;;;33.13;18.52;;;14.20;96.30;;;;;;5095546;28;20043;-65
2021/04/02 00:28:31;;;;;;;32.13;19.23;;;14.20;96.60;;;;;;5095353;28;20489;-65
2021/04/02 00:30:57;;;;;;;35.47;20.33;;;14.20;96.80;;;;;;5095418;28;20095;-65
2021/04/02 00:33:26;;;;;;;33.20;18.88;;;14.10;97.20;;;;;;5095516;28;20024;-66
2021/04/02 00:35:52;;;;;;;34.95;18.05;;;14.10;97.40;;;;;;5095453;28;20027;-66
2021/04/02 00:38:18;;;;;;;27.50;16.20;;;14.00;97.50;;;;;;5093598;28;20032;-66
2021/04/02 00:40:47;;;;;;;29.73;15.00;;;13.90;97.50;;;;;;5094787;28;20107;-65
2021/04/02 00:43:14;;;;;;;22.88;13.40;;;13.90;97.60;;;;;;5095034;28;20032;-65
2021/04/02 00:45:39;;;;;;;19.85;12.18;;;13.80;97.60;;;;;;5094962;28;20415;-65
2021/04/02 00:48:06;;;;;;;19.98;11.38;;;13.80;97.90;;;;;;5095159;28;20081;-65
2021/04/02 00:50:36;;;;;;;16.95;9.68;;;13.70;97.60;;;;;;5095032;28;20024;-65
2021/04/02 00:53:02;;;;;;;16.90;9.30;;;13.60;97.60;;;;;;5094861;28;20024;-65
2021/04/02 00:55:28;;;;;;;19.77;8.80;;;13.50;97.80;;;;;;5094851;28;20032;-66
2021/04/02 00:57:54;;;;;;;16.60;9.43;;;13.50;97.80;;;;;;5094508;28;20065;-65
2021/04/02 01:00:20;;;;;;;17.45;9.70;;;13.40;97.90;;;;;;5094136;28;20031;-65
2021/04/02 01:02:45;;;;;;;15.13;8.25;;;13.40;97.90;;;;;;5093265;28;20020;-66
2021/04/02 01:05:15;;;;;;;15.97;8.83;;;13.30;97.90;;;;;;5094494;28;20389;-66
2021/04/02 01:07:43;;;;;;;17.35;7.93;;;13.30;98.00;;;;;;5094567;28;20378;-65
2021/04/02 01:10:13;;;;;;;11.75;6.55;;;13.20;98.00;;;;;;5095082;28;20012;-66
2021/04/02 01:12:38;;;;;;;14.07;7.07;;;13.20;97.70;;;;;;5094895;28;20095;-67
2021/04/02 01:15:30;;;;;;;16.03;6.67;;;13.10;97.80;;;;;;5094645;28;20511;-65
2021/04/02 01:17:59;;;;;;;13.85;6.60;;;13.10;97.50;;;;;;5094571;28;20024;-65
2021/04/02 01:20:29;;;;;;;12.73;5.82;;;13.10;96.90;;;;;;5094769;28;20031;-65
2021/04/02 01:22:59;;;;;;;8.35;4.88;;;13.00;96.80;;;;;;5094161;28;20035;-65
2021/04/02 01:25:42;;;;;;;8.15;5.30;;;13.00;96.40;;;;;;5094508;28;20066;-66
2021/04/02 01:28:28;;;;;;;11.88;5.15;;;12.90;96.50;;;;;;5093634;28;20035;-66
2021/04/02 01:30:57;;;;;;;8.98;4.45;;;12.90;96.60;;;;;;5093790;28;20518;-66
2021/04/02 01:33:25;;;;;;;9.00;4.70;;;12.80;96.20;;;;;;5093901;28;20430;-65
2021/04/02 01:35:54;;;;;;;8.13;4.47;;;12.80;95.90;;;;;;5093980;28;20020;-64
2021/04/02 01:38:28;;;;;;;10.88;4.20;;;12.70;95.30;;;;;;5092615;28;20034;-65
2021/04/02 01:40:58;;;;;;;9.43;4.20;;;12.60;95.10;;;;;;5093927;28;20077;-65
2021/04/02 01:43:36;;;;;;;12.02;4.07;;;12.60;94.70;;;;;;5093903;28;20077;-66
2021/04/02 01:46:04;;;;;;;4.72;3.17;;;12.50;93.70;;;;;;5093897;28;20126;-66
2021/04/02 01:48:32;;;;;;;7.00;3.20;;;12.40;93.00;;;;;;5093881;28;20020;-64
2021/04/02 01:50:59;;;;;;;8.23;3.53;;;12.40;92.80;;;;;;5093779;28;20024;-66
2021/04/02 01:53:29;;;;;;;5.78;3.25;;;12.30;92.10;;;;;;5093880;28;20023;-65
2021/04/02 01:55:55;;;;;;;12.13;4.05;;;12.30;92.00;;;;;;5093670;28;20083;-65
2021/04/02 01:58:22;;;;;;;7.20;2.95;;;12.20;92.10;;;;;;5093539;28;20020;-66
2021/04/02 02:01:00;;;;;;;5.65;3.20;;;12.20;92.10;;;;;;5093662;28;20036;-66
2021/04/02 02:03:28;;;;;;;5.75;3.40;;;12.20;92.30;;;;;;5093645;28;20426;-66
2021/04/02 02:05:55;;;;;;;8.23;3.80;;;12.10;93.00;;;;;;5093394;28;20028;-66
2021/04/02 02:08:23;;;;;;;9.95;3.90;;;12.10;93.30;;;;;;5093526;28;20016;-66
2021/04/02 02:11:01;;;;;;;13.20;4.20;;;12.10;93.40;;;;;;5093218;28;20032;-65
2021/04/02 02:13:29;;;;;;;10.55;3.60;;;12.00;93.00;;;;;;5093538;28;20089;-66
2021/04/02 02:15:55;;;;;;;10.45;3.60;;;11.90;93.00;;;;;;5093800;28;20089;-66
2021/04/02 02:18:25;;;;;;;7.93;3.65;;;11.90;93.10;;;;;;5094116;28;20480;-64
2021/04/02 02:20:51;;;;;;;8.50;3.80;;;11.90;92.80;;;;;;5091802;28;20031;-64
2021/04/02 02:23:17;;;;;;;9.10;3.75;;;11.80;92.70;;;;;;5093554;28;20024;-65
2021/04/02 02:25:43;;;;;;;7.70;3.28;;;11.70;92.80;;;;;;5092756;28;20077;-66
2021/04/02 02:28:09;;;;;;;7.28;3.33;;;11.70;93.00;;;;;;5091576;28;20078;-65
2021/04/02 02:30:36;;;;;;;9.38;3.83;;;11.70;93.10;;;;;;5093096;28;20024;-65
2021/04/02 02:33:02;;;;;;;9.52;3.63;;;11.60;93.20;;;;;;5093027;28;20428;-65
2021/04/02 02:35:28;;;;;;;;;;;11.50;93.40;;;;;;5093654;28;20028;-65
2021/04/02 02:37:56;;;;;;;6.35;3.13;;;11.50;93.50;;;;;;5093051;28;19904;-64
2021/04/02 02:40:27;;;;;;;8.15;3.53;;;11.40;93.20;;;;;;5096965;28;20052;-66
2021/04/02 02:42:56;;;;;;;7.78;3.97;;;11.30;93.10;;;;;;5093519;28;20030;-64
2021/04/02 02:45:22;;;;;;;9.40;3.88;;;11.30;93.10;;;;;;5093698;28;20028;-65
2021/04/02 02:47:49;;;;;;;7.75;3.30;;;11.20;93.10;;;;;;5093875;28;20036;-66
2021/04/02 02:50:21;;;;;;;8.27;3.67;;;11.10;92.60;;;;;;5093908;28;20048;-65
2021/04/02 02:52:48;;;;;;;7.85;3.75;;;11.00;91.90;;;;;;5093464;28;20020;-65
2021/04/02 02:55:16;;;;;;;10.35;3.78;;;10.90;91.90;;;;;;5093152;28;20553;-65
2021/04/02 02:57:44;;;;;;;6.97;3.45;;;10.80;92.00;;;;;;5092745;28;20472;-66
2021/04/02 03:00:20;;;;;;;9.50;4.10;;;10.70;92.00;;;;;;5092965;28;20025;-65
2021/04/02 03:02:49;;;;;;;9.15;3.53;;;10.60;91.90;;;;;;5092876;28;20020;-66
2021/04/02 03:05:21;;;;;;;7.00;3.40;;;10.50;92.00;;;;;;5092646;28;20028;-65
2021/04/02 03:07:51;;;;;;;9.75;3.95;;;10.50;91.80;;;;;;5092970;28;20024;-65
2021/04/02 03:10:16;;;;;;;8.15;3.17;;;10.30;91.70;;;;;;5093093;28;20020;-66
2021/04/02 03:12:44;;;;;;;12.40;4.37;;;10.30;91.60;;;;;;5092810;28;20346;-66
2021/04/02 03:15:13;;;;;;;8.85;3.70;;;10.30;91.40;;;;;;5092336;28;20024;-66
2021/04/02 03:17:41;;;;;;;9.73;3.70;;;10.20;91.50;;;;;;5092237;28;20544;-65
2021/04/02 03:20:07;;;;;;;11.52;3.83;;;10.20;91.40;;;;;;5092328;28;20024;-66
2021/04/02 03:22:33;;;;;;;;;;;10.00;91.40;;;;;;5092655;28;20032;-65
2021/04/02 03:25:03;;;;;;;8.18;3.45;;;10.00;91.50;;;;;;5092063;28;19912;-67
2021/04/02 03:27:31;;;;;;;8.13;3.42;;;10.00;91.60;;;;;;5093354;28;20115;-65
2021/04/02 03:29:56;;;;;;;8.10;3.78;;;10.00;91.90;;;;;;5091622;28;20020;-65
2021/04/02 03:32:25;;;;;;;9.00;3.10;;;9.90;91.30;;;;;;5093784;28;20492;-65
2021/04/02 03:34:53;;;;;;;7.18;3.42;;;9.90;91.40;;;;;;5093265;28;20030;-64
2021/04/02 03:37:20;;;;;;;10.25;3.65;;;9.80;91.40;;;;;;5092318;28;20055;-65
2021/04/02 03:39:47;;;;;;;11.20;3.53;;;9.70;91.60;;;;;;5092451;28;20090;-65
2021/04/02 03:42:15;;;;;;;9.70;4.13;;;9.70;91.70;;;;;;5090989;28;20119;-65
2021/04/02 03:44:43;;;;;;;5.97;3.35;;;9.60;91.90;;;;;;5092329;28;20028;-65
2021/04/02 03:47:14;;;;;;;5.15;3.10;;;9.50;92.00;;;;;;5092087;28;20021;-65
2021/04/02 03:49:42;;;;;;;7.47;3.60;;;9.50;92.10;;;;;;5093260;28;20031;-65
2021/04/02 03:52:14;;;;;;;8.52;4.25;;;9.50;92.10;;;;;;5095943;28;20478;-65
2021/04/02 03:54:41;;;;;;;7.88;3.80;;;9.40;92.20;;;;;;5096032;28;20366;-65
2021/04/02 03:57:07;;;;;;;9.23;4.18;;;9.40;92.30;;;;;;5097736;28;20035;-65
2021/04/02 03:59:36;;;;;;;9.98;4.00;;;9.30;92.50;;;;;;5097553;28;20032;-66
2021/04/02 04:02:05;;;;;;;9.98;4.35;;;9.30;92.60;;;;;;5096280;28;20043;-64
2021/04/02 04:04:31;;;;;;;8.45;4.28;;;9.20;92.80;;;;;;5096033;28;20034;-65
2021/04/02 04:06:58;;;;;;;;;;;9.20;92.90;;;;;;5095925;28;20044;-65
2021/04/02 04:09:26;;;;;;;8.50;3.83;;;9.20;93.10;;;;;;5095637;28;19911;-65
2021/04/02 04:11:53;;;;;;;12.98;3.70;;;9.10;93.20;;;;;;5096036;28;20023;-65
2021/04/02 04:14:21;;;;;;;6.85;3.85;;;9.10;93.50;;;;;;5095572;28;20039;-64
2021/04/02 04:16:47;;;;;;;10.15;4.07;;;9.00;93.50;;;;;;5095795;28;20027;-66
2021/04/02 04:19:14;;;;;;;;;;;9.00;93.60;;;;;;5094441;28;20028;-65
2021/04/02 04:21:45;;;;;;;10.98;4.45;;;9.00;93.70;;;;;;5095166;28;19904;-65
2021/04/02 04:24:20;;;;;;;8.25;4.60;;;8.90;93.80;;;;;;5094318;28;20032;-64
2021/04/02 04:26:48;;;;;;;13.98;5.30;;;8.80;94.10;;;;;;5095106;28;20392;-64
2021/04/02 04:29:20;;;;;;;9.23;5.07;;;8.80;94.30;;;;;;5095114;28;20016;-64
2021/04/02 04:31:47;;;;;;;9.82;4.60;;;8.80;94.50;;;;;;5095288;28;20051;-64
2021/04/02 04:34:14;;;;;;;11.35;4.35;;;8.80;94.60;;;;;;5094910;28;20091;-66
2021/04/02 04:36:42;;;;;;;12.57;4.60;;;8.80;94.70;;;;;;5095372;28;20106;-65
2021/04/02 04:39:08;;;;;;;11.00;5.10;;;8.80;94.70;;;;;;5095021;28;20035;-65
2021/04/02 04:41:35;;;;;;;12.30;5.72;;;8.70;94.70;;;;;;5094877;28;20020;-65
2021/04/02 04:44:03;;;;;;;11.18;5.80;;;8.70;94.90;;;;;;5095046;28;20028;-65
2021/04/02 04:46:29;;;;;;;12.13;5.53;;;8.60;95.30;;;;;;5094936;28;20043;-65
2021/04/02 04:48:56;;;;;;;9.93;5.30;;;8.60;95.50;;;;;;5095221;28;20075;-65
2021/04/02 04:51:23;;;;;;;;;;;8.50;95.80;;;;;;5094992;28;20024;-65
2021/04/02 04:53:54;;;;;;;10.25;5.15;;;8.40;96.10;;;;;;5094485;28;20015;-66
2021/04/02 04:56:21;;;;;;;9.18;5.50;;;8.40;96.40;;;;;;5095010;28;20032;-65
2021/04/02 04:58:50;;;;;;;12.07;6.07;;;8.30;96.70;;;;;;5094389;28;20035;-65
2021/04/02 05:01:18;;;;;;;14.93;6.22;;;8.30;97.00;;;;;;5093012;28;20024;-65
2021/04/02 05:03:45;;;;;;;10.50;6.53;;;8.20;97.20;;;;;;5094460;28;20068;-66
2021/04/02 05:06:13;;;;;;;11.65;6.15;;;8.20;97.50;;;;;;5094263;28;20024;-65
2021/04/02 05:08:45;;;;;;;12.05;5.80;;;8.10;97.70;;;;;;5094594;28;20020;-66
2021/04/02 05:11:25;;;;;;;14.48;6.45;;;8.10;97.80;;;;;;5094705;28;20099;-65
2021/04/02 05:13:53;;;;;;;15.15;5.72;;;8.10;97.90;;;;;;5094418;28;20020;-66
2021/04/02 05:16:21;;;;;;;12.13;6.20;;;8.00;98.00;;;;;;5094650;28;20101;-65
2021/04/02 05:18:48;;;;;;;8.98;6.03;;;8.00;98.20;;;;;;5093205;28;20062;-66
2021/04/02 05:21:14;;;;;;;11.95;6.18;;;8.00;98.40;;;;;;5094848;28;20098;-66
2021/04/02 05:23:40;;;;;;;10.80;6.38;;;7.90;98.80;;;;;;5094319;28;20521;-65
2021/04/02 05:26:10;;;;;;;12.82;7.00;;;7.90;98.70;;;;;;5094095;28;20035;-65
2021/04/02 05:28:35;;;;;;;13.98;7.38;;;7.90;98.90;;;;;;5094364;28;20117;-66
2021/04/02 05:31:01;;;;;;;12.20;6.90;;;7.80;99.10;;;;;;5094095;28;20112;-65
2021/04/02 05:33:27;;;;;;;13.43;6.80;;;7.80;99.30;;;;;;5094238;28;20017;-65
2021/04/02 05:35:52;;;;;;;16.77;6.63;;;7.80;99.50;;;;;;5094011;28;20024;-65
2021/04/02 05:38:18;;;;;;;12.20;7.00;;;7.70;99.70;;;;;;5093870;28;20024;-66
2021/04/02 05:40:44;;;;;;;14.67;6.70;;;7.70;99.80;;;;;;5093906;28;20500;-66
2021/04/02 05:43:19;;;;;;;9.83;6.80;;;7.70;99.90;;;;;;5093788;28;20399;-66
2021/04/02 05:45:46;;;;;;;11.40;7.05;;;7.70;99.90;;;;;;5093925;28;20023;-66
2021/04/02 05:48:15;;;;;;;11.63;7.22;;;7.80;99.90;;;;;;5094373;28;20016;-66
2021/04/02 05:50:42;;;;;;;15.07;7.10;;;7.80;99.90;;;;;;5093489;28;20028;-67
2021/04/02 05:53:09;;;;;;;12.57;7.63;;;7.80;99.90;;;;;;5093446;28;20036;-66
2021/04/02 05:55:43;;;;;;;13.13;6.60;;;7.80;99.90;;;;;;5092325;28;20024;-65
2021/04/02 05:58:11;;;;;;;12.68;7.57;;;7.80;99.90;;;;;;5095448;28;20032;-65
2021/04/02 06:00:39;;;;;;;13.77;7.45;;;7.80;99.90;;;;;;5093730;28;20028;-68
2021/04/02 06:03:08;;;;;;;13.75;7.68;;;7.70;99.90;;;;;;5093747;28;20024;-67
2021/04/02 06:05:34;;;;;;;12.07;7.90;;;7.70;99.90;;;;;;5093683;28;20038;-66
2021/04/02 06:08:00;;;;;;;15.52;8.45;;;7.70;99.90;;;;;;5093871;28;20028;-65
2021/04/02 06:10:26;;;;;;;14.50;8.85;;;7.60;99.90;;;;;;5093827;28;20027;-65
2021/04/02 06:12:55;;;;;;;17.30;9.60;;;7.60;99.90;;;;;;5091953;28;20020;-64
2021/04/02 06:15:22;;;;;;;15.45;9.13;;;7.60;99.90;;;;;;5093675;28;20031;-64
2021/04/02 06:18:00;;;;;;;15.45;8.00;;;7.70;99.90;;;;;;5095478;22;20041;-65
2021/04/02 06:20:43;;;;;;;13.82;8.75;;;7.70;99.90;;;;;;5057042;28;20021;-65
2021/04/02 06:23:17;;;;;;;13.05;8.20;;;7.70;99.90;;;;;;5053527;28;20021;-65
2021/04/02 06:25:47;;;;;;;13.60;8.90;;;7.70;99.90;;;;;;5053199;28;20481;-65
2021/04/02 06:28:17;;;;;;;13.48;8.52;;;7.80;99.90;;;;;;5035033;28;20548;-65
2021/04/02 06:30:44;;;;;;;14.25;9.80;;;7.80;99.90;;;;;;5035432;28;20028;-65
2021/04/02 06:33:11;;;;;;;16.55;9.15;;;7.80;99.90;;;;;;5053498;28;20095;-65
2021/04/02 06:35:40;;;;;;;13.20;9.18;;;7.80;99.90;;;;;;5053273;28;20025;-65
2021/04/02 06:38:05;;;;;;;13.30;8.73;;;7.80;99.90;;;;;;5035075;28;20029;-65
2021/04/02 06:40:31;;;;;;;14.70;9.10;;;7.80;99.90;;;;;;5053168;28;20050;-64
2021/04/02 06:43:02;;;;;;;15.32;10.25;;;7.80;99.90;;;;;;5035273;28;20500;-65
2021/04/02 06:45:28;;;;;;;13.35;8.60;;;7.80;99.90;;;;;;5053033;28;20060;-64
2021/04/02 06:48:08;;;;;;;18.80;9.55;;;7.80;99.90;;;;;;5052740;28;20509;-65
2021/04/02 06:50:34;;;;;;;17.05;9.15;;;7.90;99.90;;;;;;5052963;28;20075;-65
2021/04/02 06:53:03;;;;;;;15.27;9.48;;;7.90;99.90;;;;;;5052870;28;20021;-65
2021/04/02 06:55:30;;;;;;;17.67;9.15;;;8.00;99.90;;;;;;5052772;28;20100;-65
2021/04/02 06:58:01;;;;;;;14.88;9.32;;;8.10;99.90;;;;;;5034855;28;20052;-64
2021/04/02 07:00:28;;;;;;;15.10;9.15;;;8.10;99.90;;;;;;5052971;28;20132;-65
2021/04/02 07:02:54;;;;;;;14.18;9.38;;;8.10;99.90;;;;;;5052892;28;20496;-65
2021/04/02 07:05:22;;;;;;;16.88;9.00;;;8.10;99.90;;;;;;5053249;28;20024;-65
2021/04/02 07:07:55;;;;;;;16.08;9.60;;;8.20;99.90;;;;;;5052830;28;20029;-65
2021/04/02 07:10:22;;;;;;;12.73;8.88;;;8.30;99.90;;;;;;5034755;28;20017;-65
2021/04/02 07:12:50;;;;;;;14.50;9.18;;;8.30;99.90;;;;;;5052653;28;20032;-65
2021/04/02 07:15:17;;;;;;;14.32;8.13;;;8.30;99.90;;;;;;5034767;28;20021;-64
2021/04/02 07:17:45;;;;;;;15.45;9.55;;;8.40;99.90;;;;;;5034696;28;20032;-65
2021/04/02 07:20:11;;;;;;;11.60;8.25;;;8.50;99.90;;;;;;5052567;28;20025;-64
2021/04/02 07:22:39;;;;;;;11.88;8.48;;;8.50;99.90;;;;;;5052924;28;20394;-64
2021/04/02 07:25:06;;;;;;;13.20;8.65;;;8.60;99.90;;;;;;5055594;28;20025;-64
2021/04/02 07:27:33;;;;;;;12.68;8.52;;;8.70;99.90;;;;;;5056851;28;20094;-64
2021/04/02 07:30:01;;;;;;;12.55;7.43;;;8.80;99.90;;;;;;5039225;28;20420;-65
2021/04/02 07:32:31;;;;;;;11.02;7.88;;;8.80;99.40;;;;;;5057282;28;20025;-65
2021/04/02 07:34:57;;;;;;;11.95;8.32;;;8.80;99.60;;;;;;5056832;28;20021;-65
2021/04/02 07:37:23;;;;;;;;;;;9.00;99.60;;;;;;5057174;28;20025;-65
2021/04/02 07:39:52;;;;;;;12.85;7.63;;;9.00;99.30;;;;;;5056989;28;20237;-65
2021/04/02 07:42:21;;;;;;;11.10;7.15;;;9.10;98.50;;;;;;5056649;28;20032;-65
2021/04/02 07:44:54;;;;;;;14.45;8.32;;;9.20;98.50;;;;;;5057131;28;20029;-65
2021/04/02 07:47:22;;;;;;;10.90;8.00;;;9.30;98.30;;;;;;5056605;28;20029;-65
2021/04/02 07:49:48;;;;;;;10.93;8.02;;;9.40;98.20;;;;;;5056959;28;20108;-65
2021/04/02 07:52:14;;;;;;;11.30;7.78;;;9.50;97.10;;;;;;5056137;28;20040;-65
2021/04/02 07:54:42;;;;;;;15.53;8.53;;;9.60;96.40;;;;;;5056289;28;20025;-65
2021/04/02 07:57:11;;;;;;;11.38;7.75;;;9.60;96.40;;;;;;5037990;28;20061;-65
2021/04/02 07:59:45;;;;;;;13.10;8.43;;;9.70;96.10;;;;;;5038353;28;20032;-64
2021/04/02 08:02:14;;;;;;;10.80;7.72;;;9.80;96.20;;;;;;5056081;28;20111;-65
2021/04/02 08:04:57;;;;;;;11.88;7.55;;;9.90;95.90;;;;;;5055846;28;20039;-65
2021/04/02 08:07:32;;;;;;;13.63;8.90;;;10.00;95.50;;;;;;5055520;28;20120;-65
2021/04/02 08:10:01;;;;;;;12.20;8.07;;;10.00;95.30;;;;;;5037763;28;20464;-65
2021/04/02 08:12:29;;;;;;;13.27;7.57;;;10.20;95.30;;;;;;5055695;28;20025;-65
2021/04/02 08:14:59;;;;;;;13.27;7.88;;;10.30;94.80;;;;;;5056115;28;20069;-65
2021/04/02 08:17:27;;;;;;;14.38;8.18;;;10.40;94.60;;;;;;5055178;28;20044;-63
2021/04/02 08:20:12;;;;;;;10.38;7.53;;;10.50;94.20;;;;;;5055728;28;20025;-63
2021/04/02 08:22:38;;;;;;;10.85;7.72;;;10.50;94.20;;;;;;5055707;28;20029;-63
2021/04/02 08:25:10;;;;;;;12.80;8.50;;;10.50;94.30;;;;;;5055482;28;20127;-64
2021/04/02 08:27:36;;;;;;;10.95;8.48;;;10.60;94.10;;;;;;5055389;28;20799;-63
2021/04/02 08:30:05;;;;;;;11.80;8.10;;;10.70;93.80;;;;;;5056030;28;20079;-64
2021/04/02 08:32:36;;;;;;;12.27;9.02;;;10.70;93.70;;;;;;5056368;28;20033;-64
2021/04/02 08:35:02;;;;;;;10.50;8.05;;;10.70;93.80;;;;;;5055464;28;20025;-64
2021/04/02 08:37:29;;;;;;;14.27;8.27;;;10.70;93.60;;;;;;5036892;28;20489;-63
2021/04/02 08:39:56;;;;;;;11.10;8.32;;;10.80;93.40;;;;;;5037398;28;20354;-65
2021/04/02 08:42:22;;;;;;;13.70;9.15;;;10.90;93.30;;;;;;5037164;28;20402;-64
2021/04/02 08:44:48;;;;;;;12.73;8.63;;;11.00;93.10;;;;;;5037809;28;20025;-63
2021/04/02 08:47:16;;;;;;;10.40;8.30;;;11.10;92.90;;;;;;5055175;28;20035;-65
2021/04/02 08:49:52;;;;;;;10.85;7.68;;;11.20;92.60;;;;;;5054835;28;20033;-64
2021/04/02 08:52:26;;;;;;;9.68;8.02;;;12.00;92.00;;;;;;5037592;28;20021;-64
2021/04/02 08:54:55;;;;;;;9.05;7.40;;;14.00;87.50;;;;;;5054839;28;20026;-64
2021/04/02 08:57:23;;;;;;;9.48;6.85;;;16.20;78.30;;;;;;5054763;28;20024;-66
2021/04/02 08:59:50;;;;;;;9.60;7.32;;;17.50;70.20;;;;;;5055108;28;20032;-64
2021/04/02 09:02:17;;;;;;;10.35;7.18;;;18.20;66.20;;;;;;5055072;28;20497;-64
2021/04/02 09:04:43;;;;;;;;;;;19.30;61.60;;;;;;5037731;28;20437;-64
2021/04/02 09:07:10;;;;;;;7.53;6.68;;;20.60;57.70;;;;;;5054558;28;19909;-67
2021/04/02 09:09:39;;;;;;;8.20;6.47;;;21.50;54.30;;;;;;5036516;28;20029;-67
2021/04/02 09:12:10;;;;;;;8.88;6.70;;;22.50;50.80;;;;;;5054371;28;20013;-66
2021/04/02 09:14:44;;;;;;;8.65;7.75;;;23.30;49.10;;;;;;5054845;28;20366;-66
2021/04/02 09:17:13;;;;;;;8.15;7.00;;;23.30;47.00;;;;;;5036607;28;20068;-67
2021/04/02 09:19:39;;;;;;;8.63;6.53;;;23.30;46.90;;;;;;5054632;28;20041;-68
2021/04/02 09:22:06;;;;;;;8.48;6.95;;;22.40;47.20;;;;;;5036300;28;20025;-65
2021/04/02 09:24:39;;;;;;;9.77;7.30;;;22.30;47.10;;;;;;5054461;28;20040;-65
2021/04/02 09:27:10;;;;;;;8.00;6.82;;;21.50;48.20;;;;;;5054647;28;20028;-65
2021/04/02 09:29:36;;;;;;;7.78;7.03;;;21.30;48.60;;;;;;5054477;28;20024;-65
2021/04/02 09:32:03;;;;;;;7.88;6.28;;;20.80;48.80;;;;;;5036315;28;20025;-64
2021/04/02 09:34:30;;;;;;;7.45;6.65;;;19.60;50.00;;;;;;5054472;28;20029;-65
2021/04/02 09:36:57;;;;;;;8.38;6.85;;;18.60;51.70;;;;;;5053948;28;20032;-66
2021/04/02 09:39:25;;;;;;;10.45;7.38;;;17.90;54.10;;;;;;5053678;28;20343;-66
2021/04/02 09:41:58;;;;;;;11.95;8.18;;;17.90;54.80;;;;;;5053890;28;20031;-66
2021/04/02 09:44:26;;;;;;;8.93;7.85;;;17.80;55.20;;;;;;5053911;28;20403;-67
2021/04/02 09:46:59;;;;;;;8.77;7.88;;;17.40;56.00;;;;;;5053331;28;20025;-66
2021/04/02 09:49:25;;;;;;;9.50;7.28;;;17.10;55.50;;;;;;5053869;28;20052;-65
2021/04/02 09:51:52;;;;;;;10.13;7.05;;;16.40;56.30;;;;;;5053690;28;20431;-66
2021/04/02 09:54:20;;;;;;;10.18;7.97;;;16.00;57.80;;;;;;5053908;28;20355;-66
2021/04/02 09:56:48;;;;;;;8.35;7.22;;;15.80;59.00;;;;;;5053705;28;20047;-65
2021/04/02 09:59:14;;;;;;;10.60;6.78;;;15.70;58.90;;;;;;5035985;28;20059;-64
2021/04/02 10:01:41;;;;;;;9.20;7.20;;;15.70;58.30;;;;;;5038450;28;20026;-68
2021/04/02 10:04:09;;;;;;;13.32;8.18;;;15.50;58.50;;;;;;5058499;28;20370;-66
2021/04/02 10:06:35;;;;;;;9.13;7.63;;;15.50;59.10;;;;;;5054504;28;20150;-68
2021/04/02 10:09:04;;;;;;;12.27;7.90;;;15.40;58.60;;;;;;5053593;28;20529;-68
2021/04/02 10:11:30;;;;;;;9.57;7.05;;;15.50;59.00;;;;;;5035538;28;20017;-68
2021/04/02 10:13:56;;;;;;;8.52;7.05;;;16.00;58.50;;;;;;5053526;28;20029;-68
2021/04/02 10:16:22;;;;;;;10.68;7.10;;;16.70;56.80;;;;;;5053171;28;20029;-67
2021/04/02 10:18:49;;;;;;;7.97;6.82;;;17.30;56.20;;;;;;5053446;28;20056;-68
2021/04/02 10:21:16;;;;;;;7.60;6.90;;;19.60;53.10;;;;;;5035158;28;20481;-68
2021/04/02 10:23:41;;;;;;;10.95;7.07;;;20.20;50.10;;;;;;5054493;28;20100;-68
2021/04/02 10:26:08;;;;;;;7.82;6.85;;;19.60;50.90;;;;;;5053235;28;20429;-68
2021/04/02 10:28:34;;;;;;;8.80;6.53;;;20.20;49.90;;;;;;5052973;28;20393;-66
2021/04/02 10:31:00;;;;;;;8.98;7.10;;;21.00;48.40;;;;;;5054168;28;20047;-67
2021/04/02 10:33:26;;;;;;;;;;;20.50;48.00;;;;;;5054687;28;20032;-66
2021/04/02 10:35:51;;;;;;;8.63;6.32;;;22.10;47.70;;;;;;5054585;28;19905;-67
2021/04/02 10:38:17;;;;;;;7.75;6.80;;;23.30;45.30;;;;;;5053288;28;20393;-65
2021/04/02 10:40:43;;;;;;;;;;;24.10;43.50;;;;;;5035870;28;20033;-65
2021/04/02 10:43:10;;;;;;;8.25;7.45;;;24.90;42.60;;;;;;5035554;28;19905;-65
2021/04/02 10:45:36;;;;;;;7.05;6.35;;;25.80;40.90;;;;;;5053427;28;20492;-67
2021/04/02 10:48:03;;;;;;;6.90;6.18;;;26.20;40.70;;;;;;5053610;28;20025;-66
2021/04/02 10:50:30;;;;;;;9.80;6.35;;;25.70;39.80;;;;;;5054085;28;20052;-68
2021/04/02 10:52:57;;;;;;;10.63;9.35;;;26.00;39.50;;;;;;5035478;28;20513;-66
2021/04/02 10:55:23;;;;;;;7.38;5.97;;;26.10;39.20;;;;;;5054455;28;20032;-67
2021/04/02 10:57:49;;;;;;;7.10;6.50;;;26.70;38.70;;;;;;5035721;28;20029;-66
2021/04/02 11:00:17;;;;;;;7.40;6.60;;;26.80;38.20;;;;;;5056693;28;20029;-65
2021/04/02 11:02:43;;;;;;;7.35;6.57;;;26.00;38.60;;;;;;5039410;28;20067;-67
2021/04/02 11:05:10;;;;;;;9.32;6.90;;;25.90;38.80;;;;;;5057331;28;20029;-66
2021/04/02 11:07:37;;;;;;;7.95;6.90;;;25.00;39.40;;;;;;5056945;28;20029;-66
2021/04/02 11:10:05;;;;;;;7.03;6.32;;;24.30;39.60;;;;;;5057242;28;20048;-68
2021/04/02 11:12:31;;;;;;;10.25;7.18;;;22.80;41.50;;;;;;5039242;28;20024;-66
2021/04/02 11:14:56;;;;;;;;;;;21.40;43.20;;;;;;5057488;28;20017;-67
2021/04/02 11:17:23;;;;;;;7.75;6.82;;;20.20;45.10;;;;;;5056659;28;19961;-66
2021/04/02 11:19:50;;;;;;;7.88;6.95;;;19.40;46.40;;;;;;5039120;28;20036;-67
2021/04/02 11:22:16;;;;;;;10.02;7.50;;;18.60;48.10;;;;;;5040146;28;20481;-69
2021/04/02 11:24:42;;;;;;;9.38;7.82;;;17.60;50.20;;;;;;5056777;28;20033;-65
2021/04/02 11:27:08;;;;;;;7.57;6.88;;;16.80;51.50;;;;;;5056747;28;20029;-68
2021/04/02 11:29:35;;;;;;;7.85;6.80;;;16.50;52.30;;;;;;5038583;28;20443;-67
2021/04/02 11:32:02;;;;;;;10.98;6.80;;;16.30;52.60;;;;;;5057145;28;20013;-68
2021/04/02 11:34:30;;;;;;;;;;;16.00;53.40;;;;;;5057116;28;20103;-65
2021/04/02 11:36:57;;;;;;;8.20;7.07;;;15.80;53.50;;;;;;5056369;28;19904;-65
2021/04/02 11:39:22;;;;;;;11.05;7.78;;;15.50;54.20;;;;;;5056378;28;20116;-66
2021/04/02 11:41:48;;;;;;;8.70;7.20;;;15.30;54.60;;;;;;5056281;28;20108;-66
2021/04/02 11:44:14;;;;;;;13.57;7.72;;;15.00;55.20;;;;;;5056142;28;20029;-65
2021/04/02 11:46:40;;;;;;;10.27;8.00;;;14.70;55.50;;;;;;5056506;28;20029;-66
2021/04/02 11:49:06;;;;;;;11.80;7.75;;;14.70;56.40;;;;;;5056194;28;20422;-64
2021/04/02 11:51:31;;;;;;;;;;;14.60;56.30;;;;;;5039703;28;20040;-66
2021/04/02 11:53:57;;;;;;;9.63;7.68;;;14.50;56.40;;;;;;5039026;28;19905;-66
2021/04/02 11:56:23;;;;;;;10.27;7.43;;;14.40;57.00;;;;;;5056395;28;20036;-64
2021/04/02 11:58:49;;;;;;;10.15;7.25;;;14.30;57.10;;;;;;5055946;28;20075;-67
2021/04/02 12:01:14;;;;;;;9.60;7.75;;;14.30;58.50;;;;;;5055589;28;20025;-64
2021/04/02 12:03:40;;;;;;;9.60;7.33;;;14.30;57.90;;;;;;5037887;28;20473;-66
2021/04/02 12:06:05;;;;;;;11.27;7.80;;;14.30;58.50;;;;;;5037792;28;20029;-65
2021/04/02 12:08:31;;;;;;;10.77;7.73;;;14.40;57.40;;;;;;5055677;28;20270;-65
2021/04/02 12:10:57;;;;;;;10.27;7.40;;;14.40;57.40;;;;;;5055152;28;20101;-65
2021/04/02 12:13:22;;;;;;;9.68;8.30;;;14.40;57.30;;;;;;5056174;28;20420;-66
2021/04/02 12:15:48;;;;;;;11.33;7.67;;;14.50;56.90;;;;;;5038576;28;20025;-66
2021/04/02 12:18:14;;;;;;;13.95;8.57;;;14.30;57.30;;;;;;5079746;22;20371;-67
2021/04/02 12:20:40;;;;;;;8.85;7.38;;;14.40;57.70;;;;;;5055381;28;20027;-67
2021/04/02 12:23:06;;;;;;;10.35;7.53;;;14.40;57.30;;;;;;5055425;28;20096;-69
2021/04/02 12:25:32;;;;;;;9.55;7.25;;;14.40;56.60;;;;;;5055918;28;20374;-67
2021/04/02 12:27:57;;;;;;;8.93;6.95;;;14.40;57.00;;;;;;5055071;28;20029;-68
2021/04/02 12:30:23;;;;;;;11.97;7.67;;;14.40;57.10;;;;;;5055150;28;20025;-68
2021/04/02 12:32:49;;;;;;;8.45;7.00;;;14.50;57.00;;;;;;5055136;28;20033;-69
2021/04/02 12:35:15;;;;;;;8.97;7.37;;;14.40;57.00;;;;;;5055177;28;20025;-68
2021/04/02 12:37:41;;;;;;;10.60;7.13;;;14.40;57.30;;;;;;5054913;28;20263;-69
2021/04/02 12:40:14;;;;;;;8.40;7.15;;;14.40;57.10;;;;;;5036971;28;20554;-68
2021/04/02 12:42:39;;;;;;;9.70;7.13;;;14.30;57.30;;;;;;5055010;28;20041;-68
2021/04/02 12:45:07;;;;;;;9.10;8.20;;;14.30;56.60;;;;;;5036888;28;20396;-68
2021/04/02 12:47:33;;;;;;;9.90;6.53;;;14.40;56.40;;;;;;5054890;28;20029;-68
2021/04/02 12:50:00;;;;;;;23.02;16.85;;;14.40;56.90;;;;;;5054966;28;20021;-68
2021/04/02 12:52:25;;;;;;;8.68;7.03;;;14.40;56.90;;;;;;5054726;28;20420;-68